Malibu, CA

3:56 PM PST on January 29, 2015 (GMT -0800)
Pt. Dume - Dume Drive | Change Station
CLOSE
Current Station
Personal Weather Station
Location: Malibu, CA
Elevation: 213 ft
Nearby Weather Stations

Elev 213 ft 34.02 °N, 118.81 °W | Updated 1 minute ago

Partly Cloudy
Partly Cloudy
66.4 °F
Feels Like 66.4 °F
N
0.0
Wind Variable Wind from SSW
Gusts 1.0 mph

Today
High -- | Low -- °F
--% Chance of Precip.
Yesterday
High -- | Low -- °F
Precip. -- in
6:54 AM 5:22 PM
Waxing Gibbous, 78% visible
Pressure 30.00 in
Visibility 10.0 miles
Clouds Few 10000 ft
Scattered Clouds 14000 ft
Mostly Cloudy 20000 ft
Dew Point 50 °F
Humidity 56%
Rainfall 0.00 in
Snow Depth Not available.
UV 1 out of 12
Pollen 8.00 out of 12
Air Quality Not available.
Flu Activity Not available.
METAR KNTD 292256Z 24008KT 10SM FEW100 SCT140 BKN200 21/13 A2999 RMK AO2 SLP157 T02060128 $

More Conditions Fewer Conditions

Pressure 30.00 in
Visibility 10.0 miles
Clouds Few 10000 ft
Scattered Clouds 14000 ft
Mostly Cloudy 20000 ft
Dew Point 50 °F
Humidity 56%
Rainfall 0.00 in
Snow Depth Not available.
UV 1 out of 12
Pollen 8.00 out of 12
Air Quality Not available.
Flu Activity Not available.
METAR KNTD 292256Z 24008KT 10SM FEW100 SCT140 BKN200 21/13 A2999 RMK AO2 SLP157 T02060128 $

More Conditions Fewer Conditions

10-Day Weather Forecast

Almanac

Astronomy

Jan. 29, 2015 Rise Set
Actual Time
Civil Twilight
Nautical Twilight
Astronomical Twilight
Moon
Length of Visible Light
Length of Day
Tomorrow will be .
, % of the Moon is Illuminated

Today's Extremes

State Highs State Lows

Community

WunderPhotos

Upload Photos

1,791,643 photos uploaded!

WunderBlogs® & News

Nearby

Air Quality

  Air Quality AQ Index Pollutant
Not available.

Snow Depth

Station Depth Elevation

Earthquake Activity

City Distance Mag. Time & Date
Minimum magnitude displayed is 2.5.

Coastal Water Temperatures

Place Temperature

Nearby Weather Stations